createdAt,value
2022-12-05T00:00:09.515Z,1005.2
2022-12-05T00:01:11.375Z,1005.2
2022-12-05T00:02:12.490Z,1005.2
2022-12-05T00:03:14.416Z,1005.3
2022-12-05T00:04:16.525Z,1005.2
2022-12-05T00:05:18.477Z,1005.2
2022-12-05T00:06:20.374Z,1005.3
2022-12-05T00:07:22.413Z,1005.2
2022-12-05T00:08:24.634Z,1005.1
2022-12-05T00:09:26.443Z,1005.2
2022-12-05T00:10:28.775Z,1005.1
2022-12-05T00:11:30.413Z,1005.1
2022-12-05T00:12:32.417Z,1005.1
2022-12-05T00:13:33.354Z,1005.1
2022-12-05T00:14:34.394Z,1005.1
2022-12-05T00:15:35.417Z,1005.1
2022-12-05T00:16:37.483Z,1005.1
2022-12-05T00:17:39.541Z,1005
2022-12-05T00:18:41.974Z,1005
2022-12-05T00:19:43.473Z,1005
2022-12-05T00:20:45.655Z,1005
2022-12-05T00:21:47.494Z,1005
2022-12-05T00:22:49.714Z,1005
2022-12-05T00:23:51.674Z,1005
2022-12-05T00:24:53.530Z,1004.9
2022-12-05T00:25:56.034Z,1005
2022-12-05T00:26:58.014Z,1005
2022-12-05T00:27:59.553Z,1005
2022-12-05T00:29:01.635Z,1005
2022-12-05T00:30:03.493Z,1005
2022-12-05T00:31:05.395Z,1005
2022-12-05T00:32:06.488Z,1005
2022-12-05T00:33:07.514Z,1004.9
2022-12-05T00:34:09.409Z,1005
2022-12-05T00:35:10.375Z,1004.6
2022-12-05T00:36:11.362Z,1004.9
2022-12-05T00:37:12.414Z,1005
2022-12-05T00:38:13.366Z,1005
2022-12-05T00:39:14.444Z,1005
2022-12-05T00:40:16.483Z,1005
2022-12-05T00:41:18.402Z,1005.1
2022-12-05T00:42:20.553Z,1005.1
2022-12-05T00:43:22.401Z,1005.1
2022-12-05T00:44:24.429Z,1005.1
2022-12-05T00:45:26.439Z,1005.1
2022-12-05T00:46:28.443Z,1005.2
2022-12-05T00:47:29.594Z,1005.1
2022-12-05T00:48:31.436Z,1005.1
2022-12-05T00:49:33.433Z,1005.1
2022-12-05T00:50:35.493Z,1005.1
2022-12-05T00:51:37.355Z,1005.1
2022-12-05T00:52:38.814Z,1005.1
2022-12-05T00:53:40.753Z,1005.1
2022-12-05T00:54:42.413Z,1005.1
2022-12-05T00:55:43.561Z,1005.1
2022-12-05T00:56:45.533Z,1005.1
2022-12-05T00:57:47.853Z,1005.1
2022-12-05T00:58:49.454Z,1005.1
2022-12-05T00:59:51.394Z,1005.1
2022-12-05T01:00:52.434Z,1005
2022-12-05T01:01:53.499Z,1005.1
2022-12-05T01:02:55.424Z,1005
2022-12-05T01:03:56.419Z,1005
2022-12-05T01:04:57.455Z,1005
2022-12-05T01:05:59.376Z,1005
2022-12-05T01:07:01.535Z,1005
2022-12-05T01:08:03.877Z,1005
2022-12-05T01:09:05.453Z,1005
2022-12-05T01:10:07.373Z,1004.2
2022-12-05T01:11:08.463Z,1004.8
2022-12-05T01:12:10.413Z,1004.9
2022-12-05T01:13:11.553Z,1005
2022-12-05T01:14:13.433Z,1005
2022-12-05T01:15:14.395Z,1005
2022-12-05T01:16:15.446Z,1005.1
2022-12-05T01:17:16.433Z,1005.1
2022-12-05T01:18:18.477Z,1005.1
2022-12-05T01:19:20.433Z,1005.2
2022-12-05T01:20:23.407Z,1005.1
2022-12-05T01:21:26.454Z,1005
2022-12-05T01:22:27.474Z,1005.1
2022-12-05T01:23:29.515Z,1005.1
2022-12-05T01:24:31.711Z,1005.1
2022-12-05T01:25:33.715Z,1004.9
2022-12-05T01:26:35.458Z,1004.9
2022-12-05T01:27:37.914Z,1005
2022-12-05T01:28:39.599Z,1005
2022-12-05T01:29:41.433Z,1005
2022-12-05T01:30:42.413Z,1005
2022-12-05T01:31:43.789Z,1005
2022-12-05T01:32:45.574Z,1004.9
2022-12-05T01:33:47.654Z,1005
2022-12-05T01:34:49.495Z,1005
2022-12-05T01:35:51.407Z,1005
2022-12-05T01:36:52.444Z,1005
2022-12-05T01:37:54.414Z,1005
2022-12-05T01:38:55.454Z,1005
2022-12-05T01:39:56.730Z,1005
2022-12-05T01:40:58.014Z,1004.9
2022-12-05T01:41:59.661Z,1005
2022-12-05T01:43:01.474Z,1004.9
2022-12-05T01:44:02.455Z,1004.9
2022-12-05T01:45:04.534Z,1004.8
2022-12-05T01:46:06.508Z,1004.8
2022-12-05T01:47:07.634Z,1004.9
2022-12-05T01:48:09.414Z,1004.8
2022-12-05T01:49:10.415Z,1004.9
2022-12-05T01:50:11.422Z,1004.9
2022-12-05T01:51:12.434Z,1004.8
2022-12-05T01:52:13.373Z,1004.8
2022-12-05T01:53:14.361Z,1004.9
2022-12-05T01:54:15.458Z,1004.9
2022-12-05T01:55:16.434Z,1004.9
2022-12-05T01:56:17.434Z,1004.9
2022-12-05T01:57:18.409Z,1004.8
2022-12-05T01:58:19.515Z,1004.9
2022-12-05T01:59:21.701Z,1004.9
2022-12-05T02:00:23.594Z,1004.9
2022-12-05T02:01:25.839Z,1004.9
2022-12-05T02:02:27.494Z,1004.8
2022-12-05T02:06:41.514Z,1004.8
2022-12-05T02:07:43.544Z,1004.9
2022-12-05T02:08:45.407Z,1004.8
2022-12-05T02:09:47.357Z,1004.1
2022-12-05T02:10:48.414Z,1004.7
2022-12-05T02:11:49.495Z,1004.8
2022-12-05T02:12:51.472Z,1004.7
2022-12-05T02:13:52.414Z,1004.8
2022-12-05T02:14:53.523Z,1004.8
2022-12-05T02:15:57.040Z,1004.8
2022-12-05T02:16:57.497Z,1004.8
2022-12-05T02:17:59.453Z,1004.8
2022-12-05T02:19:01.433Z,1004.8
2022-12-05T02:20:02.854Z,1004.8
2022-12-05T02:21:04.755Z,1004.8
2022-12-05T02:22:06.415Z,1004.8
2022-12-05T02:23:07.429Z,1004.8
2022-12-05T02:24:08.543Z,1004.8
2022-12-05T02:25:10.473Z,1004.9
2022-12-05T02:26:11.482Z,1004.9
2022-12-05T02:27:13.476Z,1004.9
2022-12-05T02:28:14.844Z,1004.9
2022-12-05T02:29:16.693Z,1004.8
2022-12-05T02:30:18.753Z,1004.8
2022-12-05T02:31:20.601Z,1004.8
2022-12-05T02:32:22.469Z,1004.9
2022-12-05T02:33:24.733Z,1004.9
2022-12-05T02:34:26.543Z,1004.9
2022-12-05T02:35:28.533Z,1004.8
2022-12-05T02:36:30.499Z,1004.7
2022-12-05T02:37:32.556Z,1004.8
2022-12-05T02:38:34.433Z,1004.8
2022-12-05T02:39:36.434Z,1004.8
2022-12-05T02:40:37.541Z,1004.8
2022-12-05T02:41:39.476Z,1004.8
2022-12-05T02:42:41.504Z,1004.8
2022-12-05T02:43:43.483Z,1004.7
2022-12-05T02:44:44.454Z,1004.7
2022-12-05T02:45:45.529Z,1004.8
2022-12-05T02:46:46.474Z,1004.7
2022-12-05T02:47:47.485Z,1004.8
2022-12-05T02:48:49.534Z,1004.7
2022-12-05T02:49:51.482Z,1004.8
2022-12-05T02:50:53.542Z,1004.7
2022-12-05T02:51:55.503Z,1004.7
2022-12-05T02:52:57.734Z,1004.7
2022-12-05T02:53:59.400Z,1004.7
2022-12-05T02:55:00.445Z,1004.6
2022-12-05T02:56:02.455Z,1004.7
2022-12-05T02:57:03.494Z,1004.7
2022-12-05T02:58:05.454Z,1004.8
2022-12-05T02:59:06.512Z,1004.8
2022-12-05T03:00:07.557Z,1004.8
2022-12-05T03:01:09.632Z,1004.7
2022-12-05T03:02:11.414Z,1004.7
2022-12-05T03:03:12.411Z,1004.7
2022-12-05T03:04:13.539Z,1004.8
2022-12-05T03:05:15.438Z,1004.8
2022-12-05T03:06:16.562Z,1004.8
2022-12-05T03:07:18.614Z,1004.7
2022-12-05T03:08:20.674Z,1004.7
2022-12-05T03:09:22.533Z,1004.7
2022-12-05T03:10:24.655Z,1004.7
2022-12-05T03:11:26.572Z,1004.8
2022-12-05T03:12:28.415Z,1004.7
2022-12-05T03:13:29.479Z,1004.7
2022-12-05T03:14:30.491Z,1004.7
2022-12-05T03:15:31.474Z,1004.7
2022-12-05T03:16:32.699Z,1004.7
2022-12-05T03:17:34.478Z,1004.8
2022-12-05T03:18:35.714Z,1004.7
2022-12-05T03:19:37.853Z,1004.8
2022-12-05T03:20:39.513Z,1004.7
2022-12-05T03:21:41.562Z,1004.7
2022-12-05T03:22:43.601Z,1004.6
2022-12-05T03:23:45.490Z,1004.6
2022-12-05T03:24:47.514Z,1004.7
2022-12-05T03:25:49.514Z,1004.8
2022-12-05T03:26:52.141Z,1004.8
2022-12-05T03:27:53.494Z,1004.6
2022-12-05T03:28:55.610Z,1004.6
2022-12-05T03:29:57.820Z,1004.6
2022-12-05T03:30:59.598Z,1004.6
2022-12-05T03:32:00.493Z,1004.6
2022-12-05T03:33:01.733Z,1004.6
2022-12-05T03:34:03.883Z,1004.6
2022-12-05T03:35:05.921Z,1004.6
2022-12-05T03:36:07.473Z,1004.6
2022-12-05T03:37:08.837Z,1004.6
2022-12-05T03:38:10.442Z,1004.6
2022-12-05T03:39:11.501Z,1004.6
2022-12-05T03:40:12.496Z,1004.6
2022-12-05T03:41:14.976Z,1004.6
2022-12-05T03:42:16.534Z,1004.6
2022-12-05T03:43:18.475Z,1004.6
2022-12-05T03:44:19.473Z,1004.6
2022-12-05T03:45:20.589Z,1004.5
2022-12-05T03:46:22.640Z,1004.5
2022-12-05T03:47:24.519Z,1004.5
2022-12-05T03:48:25.604Z,1004.4
2022-12-05T03:49:32.159Z,1004.4
2022-12-05T03:50:29.494Z,1003.8
2022-12-05T03:51:31.573Z,1004.2
2022-12-05T03:52:45.908Z,1004.3
2022-12-05T03:53:35.513Z,1004.4
2022-12-05T03:54:37.473Z,1004.5
2022-12-05T03:55:38.483Z,1004.4
2022-12-05T03:56:39.594Z,1004.5
2022-12-05T03:57:41.474Z,1004.6
2022-12-05T03:58:42.514Z,1004.6
2022-12-05T03:59:44.447Z,1004.5
2022-12-05T04:00:45.611Z,1004.5
2022-12-05T04:01:47.727Z,1004.5
2022-12-05T04:02:49.574Z,1004.5
2022-12-05T04:03:51.578Z,1004.6
2022-12-05T04:04:52.542Z,1004.6
2022-12-05T04:05:54.495Z,1004.6
2022-12-05T04:06:55.664Z,1003.5
2022-12-05T04:07:57.554Z,1004.2
2022-12-05T04:08:58.478Z,1004.4
2022-12-05T04:09:59.978Z,1004.5
2022-12-05T04:11:00.503Z,1004.4
2022-12-05T04:12:01.520Z,1004.5
2022-12-05T04:13:02.514Z,1004.5
2022-12-05T04:14:04.491Z,1004.6
2022-12-05T04:15:06.616Z,1004.6
2022-12-05T04:16:08.557Z,1004.5
2022-12-05T04:17:10.474Z,1004.5
2022-12-05T04:18:11.495Z,1004.5
2022-12-05T04:19:12.493Z,1004.5
2022-12-05T04:20:13.501Z,1004.5
2022-12-05T04:21:14.513Z,1004.5
2022-12-05T04:22:15.662Z,1004.2
2022-12-05T04:23:17.633Z,1004.5
2022-12-05T04:24:19.553Z,1004.5
2022-12-05T04:25:21.527Z,1004.6
2022-12-05T04:26:23.553Z,1004.6
2022-12-05T04:27:25.521Z,1004.6
2022-12-05T04:28:27.541Z,1004.6
2022-12-05T04:29:29.635Z,1004.5
2022-12-05T04:30:31.521Z,1004.5
2022-12-05T04:31:33.629Z,1004.5
2022-12-05T04:32:35.554Z,1004.5
2022-12-05T04:33:37.581Z,1004.5
2022-12-05T04:34:39.460Z,1004.5
2022-12-05T04:35:40.914Z,1004.5
2022-12-05T04:36:42.473Z,1004.6
2022-12-05T04:37:43.534Z,1004.5
2022-12-05T04:38:45.774Z,1004.5
2022-12-05T04:39:47.614Z,1004.5
2022-12-05T04:40:49.533Z,1004.5
2022-12-05T04:41:51.521Z,1004.4
2022-12-05T04:42:52.500Z,1004.4
2022-12-05T04:43:53.546Z,1004.4
2022-12-05T04:44:55.673Z,1004.4
2022-12-05T04:45:57.533Z,1004.4
2022-12-05T04:46:59.575Z,1004.4
2022-12-05T04:48:01.561Z,1004.4
2022-12-05T04:49:03.609Z,1004.5
2022-12-05T04:50:05.595Z,1004.5
2022-12-05T04:51:07.534Z,1004.5
2022-12-05T04:52:09.554Z,1004.7
2022-12-05T04:53:11.520Z,1004.6
2022-12-05T04:54:12.570Z,1004.6
2022-12-05T04:55:14.550Z,1004.7
2022-12-05T04:56:15.518Z,1004.6
2022-12-05T04:57:16.802Z,1004.7
2022-12-05T04:58:18.503Z,1004.7
2022-12-05T04:59:19.473Z,1004.7
2022-12-05T05:00:20.494Z,1004.7
2022-12-05T05:01:21.726Z,1004.7
2022-12-05T05:02:23.815Z,1004.7
2022-12-05T05:03:25.554Z,1004.6
2022-12-05T05:04:27.474Z,1004.3
2022-12-05T05:05:28.603Z,1004.6
2022-12-05T05:06:30.554Z,1004.7
2022-12-05T05:07:32.571Z,1004.6
2022-12-05T05:08:34.555Z,1004.6
2022-12-05T05:09:36.514Z,1004.6
2022-12-05T05:10:38.534Z,1004.7
2022-12-05T05:11:40.504Z,1004.6
2022-12-05T05:12:41.514Z,1004.6
2022-12-05T05:13:42.833Z,1004.5
2022-12-05T05:14:44.807Z,1004.5
2022-12-05T05:15:46.702Z,1004.5
2022-12-05T05:16:48.534Z,1004.5
2022-12-05T05:17:50.690Z,1004.5
2022-12-05T05:18:52.535Z,1004.5
2022-12-05T05:19:54.494Z,1004.5
2022-12-05T05:20:55.494Z,1004.5
2022-12-05T05:21:56.524Z,1004.5
2022-12-05T05:22:57.518Z,1004.5
2022-12-05T05:23:59.823Z,1004.5
2022-12-05T05:25:01.634Z,1004.5
2022-12-05T05:26:03.576Z,1004.5
2022-12-05T05:27:05.934Z,1004.6
2022-12-05T05:28:08.074Z,1004.5
2022-12-05T05:29:09.577Z,1004.5
2022-12-05T05:30:11.534Z,1004.6
2022-12-05T05:31:12.842Z,1004.7
2022-12-05T05:32:14.615Z,1004.6
2022-12-05T05:33:17.081Z,1004.6
2022-12-05T05:34:18.497Z,1004.7
2022-12-05T05:35:19.499Z,1004.7
2022-12-05T05:36:20.534Z,1004.7
2022-12-05T05:37:21.516Z,1004.7
2022-12-05T05:38:22.633Z,1004.7
2022-12-05T05:39:24.554Z,1004.7
2022-12-05T05:40:25.470Z,1004.7
2022-12-05T05:41:26.533Z,1004.8
2022-12-05T05:42:27.555Z,1004.7
2022-12-05T05:43:28.594Z,1004.7
2022-12-05T05:44:30.573Z,1004.7
2022-12-05T05:45:32.616Z,1004.8
2022-12-05T05:46:34.694Z,1004.8
2022-12-05T05:47:36.574Z,1004.7
2022-12-05T05:48:38.742Z,1004.7
2022-12-05T05:49:40.873Z,1004.7
2022-12-05T05:50:42.493Z,1004.6
2022-12-05T05:51:43.469Z,1004.6
2022-12-05T05:52:44.518Z,1004.7
2022-12-05T05:53:45.558Z,1004.7
2022-12-05T05:54:47.534Z,1004.7
2022-12-05T05:55:48.534Z,1004
2022-12-05T05:56:50.554Z,1004.5
2022-12-05T05:57:51.527Z,1004.6
2022-12-05T05:58:52.534Z,1004.7
2022-12-05T05:59:53.595Z,1004.7
2022-12-05T06:00:55.555Z,1004.7
2022-12-05T06:01:57.570Z,1004.7
2022-12-05T06:02:59.688Z,1004.7
2022-12-05T06:04:00.863Z,1004.7
2022-12-05T06:05:02.713Z,1004.7
2022-12-05T06:06:04.593Z,1004.8
2022-12-05T06:07:06.766Z,1004.7
2022-12-05T06:08:08.714Z,1004.7
2022-12-05T06:09:10.574Z,1004.7
2022-12-05T06:10:11.561Z,1004.7
2022-12-05T06:11:12.621Z,1004.7
2022-12-05T06:12:14.593Z,1004.7
2022-12-05T06:13:16.556Z,1004.8
2022-12-05T06:14:18.635Z,1004.8
2022-12-05T06:15:20.574Z,1004.8
2022-12-05T06:16:22.582Z,1004.8
2022-12-05T06:17:24.694Z,1004.7
2022-12-05T06:18:26.514Z,1004.7
2022-12-05T06:19:27.643Z,1004.7
2022-12-05T06:20:29.871Z,1004.8
2022-12-05T06:21:31.954Z,1004.8
2022-12-05T06:22:33.551Z,1004.8
2022-12-05T06:23:34.495Z,1004.8
2022-12-05T06:24:35.536Z,1004.8
2022-12-05T06:25:36.553Z,1004.7
2022-12-05T06:26:37.669Z,1004.7
2022-12-05T06:27:39.542Z,1004.7
2022-12-05T06:28:41.064Z,1004.7
2022-12-05T06:29:42.846Z,1004.7
2022-12-05T06:30:44.581Z,1004.7
2022-12-05T06:31:46.698Z,1004.7
2022-12-05T06:32:48.596Z,1004.7
2022-12-05T06:33:50.576Z,1004.6
2022-12-05T06:34:51.822Z,1004.6
2022-12-05T06:35:54.005Z,1004.7
2022-12-05T06:36:55.677Z,1004.6
2022-12-05T06:37:57.657Z,1004.4
2022-12-05T06:38:59.595Z,1004.6
2022-12-05T06:40:01.677Z,1004.7
2022-12-05T06:41:03.556Z,1004.7
2022-12-05T06:42:04.754Z,1004.7
2022-12-05T06:43:06.554Z,1004.7
2022-12-05T06:44:07.554Z,1004.7
2022-12-05T06:45:09.833Z,1004.1
2022-12-05T06:46:11.692Z,1004.5
2022-12-05T06:47:12.974Z,1004.6
2022-12-05T06:48:14.562Z,1004.7
2022-12-05T06:49:16.793Z,1004.7
2022-12-05T06:50:18.962Z,1004.7
2022-12-05T06:51:21.274Z,1004.6
2022-12-05T06:52:23.183Z,1004.6
2022-12-05T06:53:24.515Z,1004.6
2022-12-05T06:54:25.839Z,1004.6
2022-12-05T06:55:28.133Z,1004.6
2022-12-05T06:56:29.543Z,1004.6
2022-12-05T06:57:30.544Z,1004.6
2022-12-05T06:58:31.540Z,1004.6
2022-12-05T06:59:32.502Z,1004.6
2022-12-05T07:00:33.593Z,1004.5
2022-12-05T07:01:34.620Z,1004.5
2022-12-05T07:02:35.669Z,1004.5
2022-12-05T07:03:36.616Z,1004.5
2022-12-05T07:04:38.654Z,1004.5
2022-12-05T07:05:41.352Z,1004.6
2022-12-05T07:06:45.030Z,1004.5
2022-12-05T07:07:43.592Z,1004.6
2022-12-05T07:08:44.501Z,1004.6
2022-12-05T07:09:46.736Z,1004.5
2022-12-05T07:10:48.675Z,1004.6
2022-12-05T07:11:50.634Z,1004.6
2022-12-05T07:12:52.674Z,1004.6
2022-12-05T07:13:54.574Z,1004.6
2022-12-05T07:14:56.093Z,1004.6
2022-12-05T07:15:57.667Z,1004.6
2022-12-05T07:17:00.461Z,1004.6
2022-12-05T07:18:01.673Z,1004.6
2022-12-05T07:19:04.033Z,1004.6
2022-12-05T07:20:05.833Z,1004.7
2022-12-05T07:21:12.016Z,1004.7
2022-12-05T07:22:15.314Z,1004.7
2022-12-05T07:23:11.649Z,1004.6
2022-12-05T07:24:13.574Z,1004.6
2022-12-05T07:25:14.957Z,1004.6
2022-12-05T07:26:16.633Z,1004.6
2022-12-05T07:27:23.456Z,1004.7
2022-12-05T07:28:19.713Z,1004.7
2022-12-05T07:29:21.633Z,1004.7
2022-12-05T07:30:23.601Z,1004.7
2022-12-05T07:31:24.652Z,1004.7
2022-12-05T07:32:26.563Z,1004.7
2022-12-05T07:33:27.655Z,1004.7
2022-12-05T07:34:29.676Z,1004.7
2022-12-05T07:35:31.730Z,1004.7
2022-12-05T07:36:33.605Z,1004.7
2022-12-05T07:37:34.496Z,1004.7
2022-12-05T07:38:35.727Z,1004.7
2022-12-05T07:39:37.560Z,1004.7
2022-12-05T07:40:39.775Z,1004.7
2022-12-05T07:41:41.574Z,1004.7
2022-12-05T07:42:42.596Z,1004.7
2022-12-05T07:43:43.602Z,1004.7
2022-12-05T07:44:44.914Z,1004.7
2022-12-05T07:45:46.701Z,1004.7
2022-12-05T07:46:48.602Z,1004.7
2022-12-05T07:47:49.741Z,1004.7
2022-12-05T07:48:51.735Z,1004.8
2022-12-05T07:49:53.995Z,1004.8
2022-12-05T07:50:56.163Z,1004.8
2022-12-05T07:51:57.681Z,1004.8
2022-12-05T07:52:59.874Z,1004.9
2022-12-05T07:54:01.654Z,1004.9
2022-12-05T07:55:03.774Z,1004.9
2022-12-05T07:56:05.636Z,1004.9
2022-12-05T07:57:07.613Z,1004.8
2022-12-05T07:58:09.647Z,1004.9
2022-12-05T07:59:11.715Z,1004.9
2022-12-05T08:00:13.634Z,1004.9
2022-12-05T08:01:14.671Z,1004.9
2022-12-05T08:02:17.044Z,1004.9
2022-12-05T08:03:18.588Z,1004.9
2022-12-05T08:04:19.633Z,1004.9
2022-12-05T08:05:21.757Z,1005
2022-12-05T08:06:23.582Z,1004.9
2022-12-05T08:07:24.705Z,1004.9
2022-12-05T08:08:26.784Z,1004.9
2022-12-05T08:09:28.734Z,1004.9
2022-12-05T08:10:30.608Z,1005
2022-12-05T08:11:31.573Z,1004.9
2022-12-05T08:12:32.895Z,1005
2022-12-05T08:13:35.160Z,1005
2022-12-05T08:14:36.593Z,1005
2022-12-05T08:15:37.633Z,1004.9
2022-12-05T08:16:39.606Z,1005
2022-12-05T08:17:40.637Z,1004.9
2022-12-05T08:18:42.575Z,1004.9
2022-12-05T08:19:43.734Z,1004.9
2022-12-05T08:20:45.883Z,1004.9
2022-12-05T08:21:47.717Z,1004.9
2022-12-05T08:22:49.680Z,1004.9
2022-12-05T08:23:50.595Z,1004.9
2022-12-05T08:24:56.071Z,1004.9
2022-12-05T08:25:53.993Z,1004.9
2022-12-05T08:26:55.616Z,1004.9
2022-12-05T08:29:04.919Z,1005
2022-12-05T08:30:07.038Z,1004.9
2022-12-05T08:31:08.813Z,1005
2022-12-05T08:32:10.654Z,1004.9
2022-12-05T08:33:11.614Z,1004.9
2022-12-05T08:34:12.614Z,1005
2022-12-05T08:35:13.653Z,1004.9
2022-12-05T08:36:14.814Z,1004.9
2022-12-05T08:37:16.614Z,1005
2022-12-05T08:38:17.611Z,1005
2022-12-05T08:39:19.475Z,1005
2022-12-05T08:40:20.988Z,1004.9
2022-12-05T08:41:22.614Z,1004.9
2022-12-05T08:42:24.129Z,1005
2022-12-05T08:43:25.633Z,1005
2022-12-05T08:44:27.583Z,1005
2022-12-05T08:45:28.602Z,1004.2
2022-12-05T08:46:30.823Z,1004.8
2022-12-05T08:47:32.732Z,1005
2022-12-05T08:48:33.555Z,1005
2022-12-05T08:49:34.619Z,1005.1
2022-12-05T08:50:35.603Z,1005
2022-12-05T08:51:37.674Z,1005
2022-12-05T08:52:39.633Z,1005
2022-12-05T08:53:44.319Z,1005
2022-12-05T08:54:42.572Z,1005
2022-12-05T08:55:44.493Z,1005
2022-12-05T08:56:45.596Z,1005
2022-12-05T08:57:47.135Z,1004.9
2022-12-05T08:58:48.673Z,1004.9
2022-12-05T08:59:51.253Z,1004.9
2022-12-05T09:00:52.755Z,1004.9
2022-12-05T09:01:55.026Z,1004.9
2022-12-05T09:02:57.482Z,1004.9
2022-12-05T09:03:58.557Z,1004.9
2022-12-05T09:05:13.418Z,1005
2022-12-05T09:06:00.854Z,1004.9
2022-12-05T09:07:02.734Z,1005
2022-12-05T09:08:04.702Z,1004.9
2022-12-05T09:09:05.622Z,1004.9
2022-12-05T09:10:07.214Z,1004.9
2022-12-05T09:11:09.294Z,1004.9
2022-12-05T09:12:10.735Z,1004.9
2022-12-05T09:13:12.714Z,1004.9
2022-12-05T09:14:14.640Z,1004.9
2022-12-05T09:15:16.927Z,1004.8
2022-12-05T09:16:19.359Z,1004.8
2022-12-05T09:17:20.691Z,1004.8
2022-12-05T09:18:22.663Z,1004.8
2022-12-05T09:19:24.706Z,1004.8
2022-12-05T09:20:26.637Z,1004.8
2022-12-05T09:21:27.674Z,1004.8
2022-12-05T09:22:29.636Z,1004.8
2022-12-05T09:23:31.617Z,1004.9
2022-12-05T09:24:33.620Z,1004.8
2022-12-05T09:25:35.617Z,1004.9
2022-12-05T09:26:47.494Z,1004.8
2022-12-05T09:27:49.674Z,1004.8
2022-12-05T09:28:51.962Z,1004.8
2022-12-05T09:29:53.676Z,1004.8
2022-12-05T09:30:56.232Z,1004.8
2022-12-05T09:31:57.664Z,1004.8
2022-12-05T09:33:00.054Z,1004.9
2022-12-05T09:34:02.154Z,1004.9
2022-12-05T09:35:04.353Z,1004.8
2022-12-05T09:36:05.598Z,1004.8
2022-12-05T09:37:30.646Z,1004.8
2022-12-05T09:38:08.934Z,1004.8
2022-12-05T09:39:10.648Z,1004.8
2022-12-05T09:40:12.207Z,1004.7
2022-12-05T09:41:13.714Z,1004.8
2022-12-05T09:42:15.673Z,1004.8
2022-12-05T09:43:16.635Z,1004.7
2022-12-05T09:44:17.694Z,1004.7
2022-12-05T09:45:20.174Z,1004.8
2022-12-05T09:46:22.259Z,1004.7
2022-12-05T09:47:23.727Z,1004.7
2022-12-05T09:48:25.683Z,1004.7
2022-12-05T09:49:28.095Z,1004.7
2022-12-05T09:50:29.977Z,1004.7
2022-12-05T09:51:31.694Z,1004.7
2022-12-05T09:52:32.775Z,1004.7
2022-12-05T09:53:35.134Z,1004.7
2022-12-05T09:54:37.036Z,1004.6
2022-12-05T09:55:38.706Z,1004.7
2022-12-05T09:56:40.594Z,1004.7
2022-12-05T09:57:41.736Z,1004.6
2022-12-05T09:58:43.995Z,1004.7
2022-12-05T09:59:45.919Z,1004.7
2022-12-05T10:00:47.654Z,1004.6
2022-12-05T10:01:48.740Z,1004.6
2022-12-05T10:02:50.855Z,1004.7
2022-12-05T10:03:53.746Z,1004.6
2022-12-05T10:05:00.077Z,1004.7
2022-12-05T10:05:57.133Z,1004.7
2022-12-05T10:06:58.722Z,1004.6
2022-12-05T10:08:00.670Z,1004.7
2022-12-05T10:09:01.676Z,1004.6
2022-12-05T10:10:02.674Z,1004.5
2022-12-05T10:11:03.584Z,1004.6
2022-12-05T10:12:04.654Z,1004.5
2022-12-05T10:13:05.933Z,1004.5
2022-12-05T10:14:07.934Z,1004.5
2022-12-05T10:15:10.021Z,1004.5
2022-12-05T10:16:11.752Z,1004.5
2022-12-05T10:17:13.694Z,1004.5
2022-12-05T10:18:15.613Z,1004.6
2022-12-05T10:19:16.934Z,1004.6
2022-12-05T10:20:19.139Z,1004.5
2022-12-05T10:21:20.614Z,1004.5
2022-12-05T10:22:21.638Z,1004.5
2022-12-05T10:23:49.229Z,1004.5
2022-12-05T10:24:24.656Z,1004.5
2022-12-05T10:25:25.641Z,1004.5
2022-12-05T10:26:26.721Z,1004.5
2022-12-05T10:27:28.762Z,1004.5
2022-12-05T10:28:30.679Z,1004.5
2022-12-05T10:29:31.649Z,1004.5
2022-12-05T10:30:32.694Z,1004.5
2022-12-05T10:31:33.705Z,1004.4
2022-12-05T10:32:34.853Z,1004.4
2022-12-05T10:33:37.276Z,1004.5
2022-12-05T10:34:38.652Z,1004.5
2022-12-05T10:35:40.934Z,1004.5
2022-12-05T10:36:43.054Z,1004.5
2022-12-05T10:37:44.609Z,1004.5
2022-12-05T10:38:45.635Z,1004.5
2022-12-05T10:39:46.588Z,1004.5
2022-12-05T10:40:48.694Z,1004.5
2022-12-05T10:41:49.637Z,1004.5
2022-12-05T10:42:50.675Z,1004.5
2022-12-05T10:43:51.954Z,1004.5
2022-12-05T10:44:53.773Z,1004.5
2022-12-05T10:45:56.356Z,1004.5
2022-12-05T10:46:58.798Z,1004.6
2022-12-05T10:48:00.819Z,1004.5
2022-12-05T10:49:03.059Z,1004.5
2022-12-05T10:50:04.835Z,1004.5
2022-12-05T10:51:07.394Z,1004.5
2022-12-05T10:52:09.134Z,1004.5
2022-12-05T10:53:11.216Z,1004.6
2022-12-05T10:54:12.735Z,1004.5
2022-12-05T10:55:14.679Z,1004.5
2022-12-05T10:56:30.115Z,1004.5
2022-12-05T10:57:16.715Z,1004.5
2022-12-05T10:58:19.294Z,1004.1
2022-12-05T10:59:21.136Z,1003.8
2022-12-05T11:00:22.720Z,1004.3
2022-12-05T11:01:25.194Z,1004.5
2022-12-05T11:02:26.821Z,1004.5
2022-12-05T11:03:28.754Z,1004.5
2022-12-05T11:04:30.717Z,1004.5
2022-12-05T11:05:31.919Z,1004.5
2022-12-05T11:06:34.234Z,1004.5
2022-12-05T11:07:35.866Z,1004.5
2022-12-05T11:09:05.021Z,1004.6
2022-12-05T11:09:40.295Z,1004.5
2022-12-05T11:10:41.976Z,1004.6
2022-12-05T11:11:44.016Z,1004.5
2022-12-05T11:12:45.701Z,1004.6
2022-12-05T11:13:46.658Z,1004.5
2022-12-05T11:14:47.754Z,1004.5
2022-12-05T11:15:55.244Z,1004.5
2022-12-05T11:16:51.773Z,1004.5
2022-12-05T11:17:54.262Z,1004.5
2022-12-05T11:18:55.693Z,1004.5
2022-12-05T11:19:56.596Z,1004.5
2022-12-05T11:20:57.697Z,1004.5
2022-12-05T11:21:59.288Z,1004.5
2022-12-05T11:23:01.043Z,1004.5
2022-12-05T11:24:02.735Z,1004.4
2022-12-05T11:25:04.713Z,1004.4
2022-12-05T11:26:05.674Z,1004.4
2022-12-05T11:27:06.737Z,1004.4
2022-12-05T11:28:08.712Z,1004.4
2022-12-05T11:29:09.754Z,1004.4
2022-12-05T11:30:11.981Z,1004.4
2022-12-05T11:31:13.845Z,1004.4
2022-12-05T11:32:15.756Z,1004.4
2022-12-05T11:33:17.695Z,1004.3
2022-12-05T11:34:19.733Z,1004.4
2022-12-05T11:35:21.733Z,1004.4
2022-12-05T11:36:22.856Z,1004.3
2022-12-05T11:37:24.873Z,1004.3
2022-12-05T11:38:26.713Z,1004.4
2022-12-05T11:39:27.814Z,1004.3
2022-12-05T11:40:32.807Z,1004.4
2022-12-05T11:41:31.895Z,1004.3
2022-12-05T11:42:33.774Z,1004.3
2022-12-05T11:43:35.732Z,1004.3
2022-12-05T11:44:36.743Z,1004.3
2022-12-05T11:45:37.707Z,1004.3
2022-12-05T11:46:38.801Z,1004.3
2022-12-05T11:47:41.042Z,1004.3
2022-12-05T11:48:42.736Z,1004.3
2022-12-05T11:49:43.802Z,1003.8
2022-12-05T11:50:48.176Z,1004.1
2022-12-05T11:51:48.673Z,1004.2
2022-12-05T11:52:50.855Z,1004.3
2022-12-05T11:53:52.802Z,1004.3
2022-12-05T11:55:09.953Z,1004.2
2022-12-05T11:55:57.424Z,1004.2
2022-12-05T11:56:58.934Z,1004.3
2022-12-05T11:58:01.042Z,1004.3
2022-12-05T11:59:03.178Z,1004.2
2022-12-05T12:00:05.155Z,1004.2
2022-12-05T12:01:06.798Z,1004.3
2022-12-05T12:02:08.780Z,1004.3
2022-12-05T12:03:09.782Z,1004.2
2022-12-05T12:04:12.201Z,1004.2
2022-12-05T12:05:14.074Z,1004.2
2022-12-05T12:06:15.882Z,1004.2
2022-12-05T12:07:17.779Z,1004.2
2022-12-05T12:08:20.124Z,1004.2
2022-12-05T12:09:21.982Z,1004.1
2022-12-05T12:10:23.717Z,1004.1
2022-12-05T12:11:25.059Z,1004.1
2022-12-05T12:12:26.894Z,1004.1
2022-12-05T12:13:28.716Z,1004.1
2022-12-05T12:14:35.773Z,1004.1
2022-12-05T12:15:36.735Z,1004.1
2022-12-05T12:16:37.801Z,1004.1
2022-12-05T12:17:39.734Z,1004.1
2022-12-05T12:18:40.736Z,1004.1
2022-12-05T12:19:41.696Z,1004.1
2022-12-05T12:20:43.013Z,1004.1
2022-12-05T12:21:44.935Z,1004.1
2022-12-05T12:22:46.698Z,1004.1
2022-12-05T12:23:47.954Z,1004.1
2022-12-05T12:24:49.748Z,1003.5
2022-12-05T12:25:51.717Z,1003.9
2022-12-05T12:26:53.773Z,1004
2022-12-05T12:27:58.735Z,1004.1
2022-12-05T12:28:57.754Z,1004
2022-12-05T12:29:59.731Z,1004
2022-12-05T12:31:00.698Z,1004.1
2022-12-05T12:32:01.915Z,1004
2022-12-05T12:33:03.943Z,1004.1
2022-12-05T12:34:05.760Z,1004.1
2022-12-05T12:35:07.810Z,1004.1
2022-12-05T12:36:09.696Z,1004.1
2022-12-05T12:37:10.707Z,1004.1
2022-12-05T12:38:12.177Z,1004.1
2022-12-05T12:39:14.423Z,1004
2022-12-05T12:40:15.797Z,1004
2022-12-05T12:41:17.700Z,1004
2022-12-05T12:42:19.007Z,1004.1
2022-12-05T12:43:45.122Z,1004
2022-12-05T12:44:22.793Z,1004
2022-12-05T12:45:25.238Z,1004
2022-12-05T12:46:26.768Z,1004.1
2022-12-05T12:47:27.716Z,1004.1
2022-12-05T12:48:28.813Z,1004.1
2022-12-05T12:49:30.721Z,1004.1
2022-12-05T12:50:32.133Z,1004.1
2022-12-05T12:51:33.769Z,1004.1
2022-12-05T12:52:35.716Z,1004.1
2022-12-05T12:53:37.295Z,1004.1
2022-12-05T12:55:03.763Z,1004.1
2022-12-05T12:55:40.767Z,1004
2022-12-05T12:56:42.794Z,1004.1
2022-12-05T12:57:45.394Z,1004
2022-12-05T12:58:46.734Z,1004.1